Time;durP1;ratioP1;P1;durP2;ratioP2;P2;SDS_P1;SDS_P2;PMS_P1;PMS_P2;Temp;Humidity;BMP_temperature;BMP_pressure;BME280_temperature;BME280_humidity;BME280_pressure;Samples;Min_cycle;Max_cycle;Signal;HPM_P1;HPM_P2
2020/12/02 00:00:35;;;;;;;26.58;17.73;;;7.20;91.00;;;;;;3511958;41;20125;-82
2020/12/02 00:03:46;;;;;;;26.60;17.17;;;7.20;91.00;;;;;;3511357;33;20121;-82
2020/12/02 00:06:14;;;;;;;32.05;20.05;;;7.20;91.00;;;;;;3519489;40;20223;-83
2020/12/02 00:08:52;;;;;;;31.10;18.50;;;7.10;91.00;;;;;;3587084;33;20121;-82
2020/12/02 00:11:18;;;;;;;29.17;18.05;;;7.10;91.10;;;;;;3514304;33;20149;-83
2020/12/02 00:13:46;;;;;;;27.70;17.63;;;7.10;91.10;;;;;;3514996;33;20121;-84
2020/12/02 00:19:33;;;;;;;26.90;17.45;;;7.10;91.10;;;;;;3522289;40;20694;-82
2020/12/02 00:22:08;;;;;;;29.65;17.60;;;7.10;91.10;;;;;;3506489;40;20197;-83
2020/12/02 00:24:34;;;;;;;28.95;18.77;;;7.10;91.10;;;;;;3514392;40;20192;-83
2020/12/02 00:27:28;;;;;;;30.08;19.33;;;7.10;91.10;;;;;;3504730;33;20117;-82
2020/12/02 00:29:55;;;;;;;27.65;17.73;;;7.10;91.10;;;;;;3523226;33;20136;-83
2020/12/02 00:32:30;;;;;;;28.33;17.88;;;7.00;91.20;;;;;;3524233;40;20144;-83
2020/12/02 00:34:59;;;;;;;28.60;17.67;;;7.00;91.20;;;;;;3528966;32;20172;-84
2020/12/02 00:37:28;;;;;;;26.58;17.55;;;7.00;91.20;;;;;;3524047;33;20098;-83
2020/12/02 00:39:55;;;;;;;27.15;16.45;;;7.00;91.20;;;;;;3523781;40;20109;-83
2020/12/02 00:42:21;;;;;;;22.33;15.60;;;7.00;91.30;;;;;;3515902;33;20225;-82
2020/12/02 00:44:50;;;;;;;25.40;16.80;;;7.00;91.30;;;;;;3539017;32;20127;-83
2020/12/02 00:47:20;;;;;;;24.77;16.98;;;7.00;91.30;;;;;;3515920;33;20120;-84
2020/12/02 00:49:50;;;;;;;27.90;17.90;;;7.00;91.30;;;;;;3531715;33;20540;-84
2020/12/02 00:52:17;;;;;;;23.67;16.40;;;7.00;91.30;;;;;;3528162;33;20124;-83
2020/12/02 00:54:44;;;;;;;25.63;15.65;;;7.00;91.40;;;;;;3512839;33;20109;-82
2020/12/02 00:57:13;;;;;;;24.70;16.42;;;7.00;91.40;;;;;;3512505;33;20114;-84
2020/12/02 00:59:44;;;;;;;23.55;15.23;;;7.00;91.40;;;;;;3513079;33;20113;-83
2020/12/02 01:02:43;;;;;;;23.98;16.05;;;7.00;91.40;;;;;;3512209;40;20141;-83
2020/12/02 01:05:14;;;;;;;25.88;15.48;;;7.00;91.40;;;;;;3512854;33;20110;-82
2020/12/02 01:07:43;;;;;;;26.55;17.88;;;7.00;91.40;;;;;;3569477;33;20189;-84
2020/12/02 01:10:12;;;;;;;26.27;16.63;;;7.00;91.40;;;;;;3512215;33;20211;-83
2020/12/02 01:12:42;;;;;;;27.73;17.60;;;7.00;91.40;;;;;;3512223;33;20563;-83
2020/12/02 01:15:09;;;;;;;27.08;17.95;;;6.90;91.40;;;;;;3512590;40;20136;-83
2020/12/02 01:17:35;;;;;;;27.67;17.45;;;6.90;91.40;;;;;;3512116;40;20118;-83
2020/12/02 01:20:20;;;;;;;28.95;17.73;;;7.00;91.50;;;;;;3504947;40;20176;-82
2020/12/02 01:22:46;;;;;;;27.05;17.35;;;7.00;91.50;;;;;;3504355;33;20133;-82
2020/12/02 01:25:21;;;;;;;26.38;17.15;;;6.90;91.40;;;;;;3520073;40;20597;-82
2020/12/02 01:28:08;;;;;;;29.17;18.08;;;6.90;91.50;;;;;;3494367;41;20122;-83
2020/12/02 01:30:39;;;;;;;27.45;17.83;;;6.90;91.50;;;;;;3494531;41;20122;-82
2020/12/02 01:33:05;;;;;;;;;;;6.90;91.50;;;;;;3495257;33;20122;-83
2020/12/02 01:35:32;;;;;;;29.52;19.05;;;6.90;91.50;;;;;;3494338;41;20026;-83
2020/12/02 01:38:20;;;;;;;31.75;18.65;;;6.90;91.50;;;;;;3522451;33;20129;-82
2020/12/02 01:40:46;;;;;;;33.58;20.50;;;6.90;91.50;;;;;;3502545;41;20149;-83
2020/12/02 01:43:15;;;;;;;29.58;17.83;;;6.90;91.50;;;;;;3494834;33;20117;-82
2020/12/02 01:45:48;;;;;;;30.23;18.02;;;6.90;91.50;;;;;;3510376;33;20598;-82
2020/12/02 01:49:00;;;;;;;26.15;17.58;;;6.90;91.60;;;;;;3494471;41;20168;-83
2020/12/02 01:51:55;;;;;;;29.58;18.27;;;6.90;91.60;;;;;;3494284;41;20578;-83
2020/12/02 01:54:45;;;;;;;33.90;18.90;;;7.00;91.60;;;;;;3516720;33;20176;-84
2020/12/02 01:57:23;;;;;;;30.85;18.20;;;6.90;91.60;;;;;;3519858;40;20128;-83
2020/12/02 02:00:08;;;;;;;24.65;17.20;;;7.00;91.60;;;;;;3514926;40;20130;-83
2020/12/02 02:02:44;;;;;;;30.30;18.65;;;6.90;91.60;;;;;;3522045;33;20546;-83
2020/12/02 02:05:27;;;;;;;33.45;19.45;;;7.00;91.60;;;;;;3521377;33;20605;-82
2020/12/02 02:07:53;;;;;;;28.20;16.92;;;7.00;91.60;;;;;;3513809;33;20113;-83
2020/12/02 02:10:23;;;;;;;30.55;18.17;;;6.90;91.60;;;;;;3513367;33;20120;-82
2020/12/02 02:13:06;;;;;;;28.05;17.45;;;7.00;91.60;;;;;;3513551;40;20106;-81
2020/12/02 02:15:48;;;;;;;28.30;18.17;;;7.00;91.70;;;;;;3513643;40;20129;-81
2020/12/02 02:18:26;;;;;;;28.83;17.38;;;7.00;91.90;;;;;;3512779;40;20590;-82
2020/12/02 02:21:01;;;;;;;29.00;18.75;;;7.00;91.60;;;;;;3513223;40;20129;-82
2020/12/02 02:23:31;;;;;;;25.90;16.73;;;7.00;91.60;;;;;;3513724;33;20177;-83
2020/12/02 02:26:02;;;;;;;25.20;17.10;;;7.00;91.60;;;;;;3513228;33;20619;-82
2020/12/02 02:28:30;;;;;;;27.17;16.95;;;7.00;91.60;;;;;;3513585;33;20105;-83
2020/12/02 02:30:56;;;;;;;27.60;16.98;;;7.00;91.60;;;;;;3512942;40;20186;-83
2020/12/02 02:33:24;;;;;;;26.88;16.98;;;7.00;91.60;;;;;;3513002;33;20573;-83
2020/12/02 02:35:50;;;;;;;28.10;16.38;;;7.00;91.60;;;;;;3513566;33;20184;-82
2020/12/02 02:38:19;;;;;;;29.05;18.60;;;7.00;91.60;;;;;;3513225;40;20125;-82
2020/12/02 02:40:48;;;;;;;26.85;17.05;;;7.00;91.50;;;;;;3513901;40;20110;-82
2020/12/02 02:43:17;;;;;;;27.30;16.52;;;7.00;91.60;;;;;;3513360;40;20118;-82
2020/12/02 02:45:43;;;;;;;24.08;15.85;;;7.00;91.50;;;;;;3513301;33;20121;-83
2020/12/02 02:48:09;;;;;;;27.23;17.50;;;7.00;91.50;;;;;;3512474;40;20117;-83
2020/12/02 02:50:36;;;;;;;28.05;18.25;;;7.00;91.60;;;;;;3512850;40;20117;-82
2020/12/02 02:53:13;;;;;;;27.38;17.40;;;7.00;91.60;;;;;;3513049;33;20157;-82
2020/12/02 02:55:41;;;;;;;26.55;16.83;;;7.00;91.50;;;;;;3512033;33;20129;-81
2020/12/02 02:58:10;;;;;;;29.13;17.90;;;7.00;91.60;;;;;;3521453;40;20665;-83
2020/12/02 03:00:36;;;;;;;29.55;16.88;;;7.00;91.60;;;;;;3513078;40;20109;-82
2020/12/02 03:03:02;;;;;;;26.17;16.23;;;7.00;91.60;;;;;;3512704;33;20133;-82
2020/12/02 03:05:29;;;;;;;27.15;15.75;;;7.00;91.50;;;;;;3513143;40;20121;-83
2020/12/02 03:08:01;;;;;;;25.33;15.68;;;7.00;91.60;;;;;;3512828;33;20188;-82
2020/12/02 03:10:31;;;;;;;25.30;17.10;;;7.00;91.50;;;;;;3521041;40;20123;-82
2020/12/02 03:13:01;;;;;;;29.13;18.30;;;7.00;91.80;;;;;;3521270;33;20200;-83
2020/12/02 03:15:30;;;;;;;27.63;17.80;;;7.00;91.50;;;;;;3513189;33;20113;-83
2020/12/02 03:17:57;;;;;;;27.40;16.35;;;7.00;91.50;;;;;;3502059;33;20158;-83
2020/12/02 03:20:33;;;;;;;28.13;17.25;;;6.90;91.50;;;;;;3501725;33;20121;-83
2020/12/02 03:22:59;;;;;;;32.13;17.35;;;6.90;91.50;;;;;;3502122;33;20580;-83
2020/12/02 03:25:32;;;;;;;28.40;17.95;;;6.90;91.50;;;;;;3501559;33;20121;-83
2020/12/02 03:28:01;;;;;;;27.13;16.80;;;6.90;91.50;;;;;;3501676;33;20117;-83
2020/12/02 03:30:27;;;;;;;30.35;17.50;;;6.90;91.50;;;;;;3502053;33;20154;-82
2020/12/02 03:32:53;;;;;;;31.25;18.60;;;6.90;91.50;;;;;;3501396;41;20629;-83
2020/12/02 03:35:19;;;;;;;27.92;16.63;;;6.90;91.50;;;;;;3501337;41;20134;-81
2020/12/02 03:37:45;;;;;;;31.13;18.30;;;6.90;91.50;;;;;;3501672;41;20129;-82
2020/12/02 03:40:12;;;;;;;28.67;16.77;;;6.90;91.60;;;;;;3533512;33;20312;-82
2020/12/02 03:42:38;;;;;;;30.77;17.95;;;6.90;91.60;;;;;;3493187;41;20110;-82
2020/12/02 03:45:06;;;;;;;34.05;18.65;;;6.90;91.60;;;;;;3501214;33;20571;-83
2020/12/02 03:47:32;;;;;;;33.13;17.55;;;6.90;91.60;;;;;;3493241;33;20587;-83
2020/12/02 03:50:00;;;;;;;32.72;19.10;;;6.90;91.60;;;;;;3510684;33;20109;-82
2020/12/02 03:52:26;;;;;;;42.20;21.98;;;6.90;91.70;;;;;;3512657;33;20124;-83
2020/12/02 03:55:11;;;;;;;35.20;19.90;;;6.90;91.70;;;;;;3512421;40;20129;-83
2020/12/02 03:57:38;;;;;;;32.22;18.30;;;6.80;91.70;;;;;;3503802;40;20547;-83
2020/12/02 04:00:07;;;;;;;34.05;18.45;;;6.80;91.70;;;;;;3512632;33;20121;-83
2020/12/02 04:02:38;;;;;;;34.03;18.83;;;6.90;91.80;;;;;;3512442;33;20180;-83
2020/12/02 04:05:06;;;;;;;30.77;18.77;;;6.90;91.80;;;;;;3513644;40;20133;-83
2020/12/02 04:07:32;;;;;;;32.47;18.90;;;6.90;91.80;;;;;;3512823;40;20114;-84
2020/12/02 04:09:58;;;;;;;30.52;18.75;;;6.90;91.80;;;;;;3514223;40;20192;-81
2020/12/02 04:13:02;;;;;;;35.05;19.33;;;6.80;91.80;;;;;;3512513;40;20089;-83
2020/12/02 04:15:28;;;;;;;35.30;19.17;;;6.80;91.80;;;;;;3520481;33;20181;-83
2020/12/02 04:17:54;;;;;;;33.30;20.02;;;6.80;91.80;;;;;;3512142;40;20173;-84
2020/12/02 04:20:21;;;;;;;31.65;18.60;;;6.80;91.90;;;;;;3504698;33;20102;-82
2020/12/02 04:22:52;;;;;;;33.38;19.83;;;6.80;91.90;;;;;;3504604;41;20105;-82
2020/12/02 04:25:18;;;;;;;32.42;18.58;;;6.80;91.90;;;;;;3512941;33;20105;-83
2020/12/02 04:27:44;;;;;;;36.50;21.10;;;6.90;91.90;;;;;;3504833;33;20148;-83
2020/12/02 04:30:10;;;;;;;40.10;21.10;;;6.80;91.90;;;;;;3512429;41;20637;-82
2020/12/02 04:32:36;;;;;;;37.80;20.33;;;6.80;91.90;;;;;;3512186;40;20117;-84
2020/12/02 04:35:03;;;;;;;35.25;19.30;;;6.80;91.90;;;;;;3512439;33;20125;-83
2020/12/02 04:37:34;;;;;;;38.70;20.38;;;6.80;92.00;;;;;;3512875;33;20102;-83
2020/12/02 04:40:00;;;;;;;34.03;21.33;;;6.80;92.00;;;;;;3512567;33;20102;-83
2020/12/02 04:42:37;;;;;;;40.10;21.70;;;6.80;92.00;;;;;;3512508;40;20196;-83
2020/12/02 04:45:06;;;;;;;36.15;20.05;;;6.80;92.00;;;;;;3528013;33;20113;-82
2020/12/02 04:47:38;;;;;;;37.88;19.45;;;6.80;92.10;;;;;;3512525;33;20171;-82
2020/12/02 04:50:25;;;;;;;37.17;19.70;;;6.80;92.10;;;;;;3562420;33;20121;-84
2020/12/02 04:53:07;;;;;;;38.80;21.40;;;6.80;92.10;;;;;;3512708;33;20431;-82
2020/12/02 04:55:33;;;;;;;40.85;21.10;;;6.80;92.10;;;;;;3521819;40;20613;-83
2020/12/02 04:57:59;;;;;;;40.63;19.75;;;6.70;92.10;;;;;;3522013;40;20158;-84
2020/12/02 05:00:30;;;;;;;42.20;21.98;;;6.70;92.10;;;;;;3514223;40;20121;-83
2020/12/02 05:03:25;;;;;;;37.70;20.25;;;6.70;92.20;;;;;;3521713;40;20125;-82
2020/12/02 05:06:30;;;;;;;35.95;18.17;;;6.70;92.20;;;;;;3512825;33;20754;-83
2020/12/02 05:09:17;;;;;;;33.30;17.60;;;6.70;92.20;;;;;;3503666;33;20129;-84
2020/12/02 05:11:53;;;;;;;33.78;17.70;;;6.70;92.20;;;;;;3525691;33;20184;-84
2020/12/02 05:14:23;;;;;;;36.47;17.65;;;6.70;92.20;;;;;;3514341;40;20563;-84
2020/12/02 05:17:21;;;;;;;31.10;16.25;;;6.70;92.20;;;;;;3514062;33;20129;-84
2020/12/02 05:20:11;;;;;;;32.55;16.35;;;6.70;92.20;;;;;;3493302;41;20125;-84
2020/12/02 05:22:46;;;;;;;30.45;15.63;;;6.70;92.20;;;;;;3499749;33;20660;-83
2020/12/02 05:25:51;;;;;;;31.92;17.20;;;6.70;92.20;;;;;;3512651;33;20243;-83
2020/12/02 05:28:30;;;;;;;30.08;14.98;;;6.80;92.20;;;;;;3520147;33;20121;-83
2020/12/02 05:31:11;;;;;;;28.40;15.05;;;6.70;92.10;;;;;;3504022;33;20137;-84
2020/12/02 05:33:40;;;;;;;25.67;14.07;;;6.70;92.10;;;;;;3513521;40;20562;-83
2020/12/02 05:36:19;;;;;;;27.30;15.25;;;6.70;92.10;;;;;;3512254;33;20205;-83
2020/12/02 05:39:02;;;;;;;23.60;13.00;;;6.70;92.10;;;;;;3503749;33;20173;-83
2020/12/02 05:41:29;;;;;;;25.63;13.35;;;6.70;92.10;;;;;;3504170;33;20128;-84
2020/12/02 05:44:20;;;;;;;22.85;12.55;;;6.70;92.10;;;;;;3503725;40;20125;-83
2020/12/02 05:46:55;;;;;;;27.05;13.10;;;6.70;92.00;;;;;;3504093;33;20136;-83
2020/12/02 05:49:50;;;;;;;31.67;16.15;;;6.70;92.00;;;;;;3506095;40;20483;-83
2020/12/02 05:52:25;;;;;;;37.00;17.17;;;6.70;92.30;;;;;;3514003;33;20110;-83
2020/12/02 05:55:05;;;;;;;32.95;17.98;;;6.70;92.00;;;;;;3521740;40;20192;-83
2020/12/02 05:57:32;;;;;;;42.63;19.08;;;6.60;92.10;;;;;;3512470;33;20175;-83
2020/12/02 06:00:01;;;;;;;39.83;20.13;;;6.60;92.10;;;;;;3514173;33;20117;-83
2020/12/02 06:02:28;;;;;;;38.85;19.08;;;6.60;92.10;;;;;;3512176;33;20156;-83
2020/12/02 06:04:59;;;;;;;35.63;19.27;;;6.60;92.20;;;;;;3511418;40;20127;-83
2020/12/02 06:07:24;;;;;;;34.05;17.77;;;6.60;92.20;;;;;;3512226;40;20121;-82
2020/12/02 06:09:52;;;;;;;31.75;16.70;;;6.60;92.20;;;;;;3512245;40;20705;-83
2020/12/02 06:12:38;;;;;;;34.25;16.85;;;6.60;92.20;;;;;;3512287;33;20191;-82
2020/12/02 06:15:28;;;;;;;32.33;16.50;;;6.60;92.20;;;;;;3511684;40;20133;-84
2020/12/02 06:18:26;;;;;;;31.10;16.23;;;6.60;92.20;;;;;;3521633;33;20121;-85
2020/12/02 06:20:54;;;;;;;30.92;15.88;;;6.60;92.20;;;;;;3512627;40;20152;-84
2020/12/02 06:23:26;;;;;;;32.55;17.23;;;6.60;92.20;;;;;;3521761;40;20446;-83
2020/12/02 06:25:54;;;;;;;27.42;15.73;;;6.60;92.20;;;;;;3521577;40;20178;-83
2020/12/02 06:28:28;;;;;;;31.98;16.88;;;6.60;92.20;;;;;;3522481;33;20130;-84
2020/12/02 06:30:58;;;;;;;32.08;16.85;;;6.60;92.20;;;;;;3512978;40;20117;-82
2020/12/02 06:33:32;;;;;;;27.90;14.95;;;6.60;92.20;;;;;;3511730;33;20132;-82
2020/12/02 06:36:20;;;;;;;26.35;14.07;;;6.60;92.20;;;;;;3511210;40;20186;-82
2020/12/02 06:39:05;;;;;;;24.38;14.32;;;6.60;92.20;;;;;;3482499;33;20665;-84
2020/12/02 06:41:34;;;;;;;26.15;14.68;;;6.60;92.20;;;;;;3502582;33;20185;-83
2020/12/02 06:44:01;;;;;;;28.67;14.98;;;6.60;92.20;;;;;;3511355;33;20124;-84
2020/12/02 06:46:54;;;;;;;27.20;14.10;;;6.60;92.20;;;;;;3511606;33;20573;-84
2020/12/02 06:49:28;;;;;;;23.52;14.18;;;6.60;92.20;;;;;;3511433;40;20110;-83
2020/12/02 06:52:05;;;;;;;26.38;12.93;;;6.60;92.10;;;;;;3511022;33;20107;-83
2020/12/02 06:54:36;;;;;;;27.25;14.05;;;6.60;92.20;;;;;;3511605;40;20113;-83
2020/12/02 06:57:06;;;;;;;27.20;14.13;;;6.60;92.10;;;;;;3501856;33;20141;-84
2020/12/02 06:59:32;;;;;;;26.60;15.97;;;6.60;92.20;;;;;;3498488;41;20165;-82
2020/12/02 07:02:07;;;;;;;27.33;15.07;;;6.50;92.10;;;;;;3502142;41;20121;-83
2020/12/02 07:04:36;;;;;;;31.83;15.82;;;6.50;92.20;;;;;;3493838;41;20125;-82
2020/12/02 07:07:04;;;;;;;36.30;16.75;;;6.50;92.20;;;;;;3489112;33;20601;-83
2020/12/02 07:09:32;;;;;;;32.95;16.30;;;6.50;92.20;;;;;;3500372;33;20138;-83
2020/12/02 07:12:06;;;;;;;33.10;17.30;;;6.50;92.30;;;;;;3492103;41;20130;-83
2020/12/02 07:14:40;;;;;;;33.78;17.05;;;6.50;92.30;;;;;;3497144;33;20269;-84
2020/12/02 07:17:09;;;;;;;34.47;15.95;;;6.50;92.40;;;;;;3484019;41;20129;-84
2020/12/02 07:19:45;;;;;;;34.00;16.58;;;6.40;92.40;;;;;;3483818;41;20129;-83
2020/12/02 07:22:14;;;;;;;34.78;17.02;;;6.50;92.40;;;;;;3490727;33;20126;-83
2020/12/02 07:24:43;;;;;;;33.17;16.27;;;6.50;92.40;;;;;;3501717;33;20126;-83
2020/12/02 07:27:09;;;;;;;32.47;15.80;;;6.50;92.40;;;;;;3501871;33;20125;-81
2020/12/02 07:29:38;;;;;;;28.00;14.40;;;6.50;92.50;;;;;;3518201;33;20130;-82
2020/12/02 07:32:12;;;;;;;27.33;14.48;;;6.50;92.50;;;;;;3509076;33;20110;-82
2020/12/02 07:34:38;;;;;;;29.33;14.48;;;6.60;92.40;;;;;;3511317;40;20125;-84
2020/12/02 07:37:10;;;;;;;24.83;13.75;;;6.60;92.40;;;;;;3511513;33;20114;-83
2020/12/02 07:39:47;;;;;;;27.15;14.32;;;6.60;92.40;;;;;;3503113;33;20443;-84
2020/12/02 07:42:35;;;;;;;26.35;14.88;;;6.60;92.40;;;;;;3503287;33;20113;-83
2020/12/02 07:45:18;;;;;;;24.48;12.88;;;6.60;92.40;;;;;;3530049;40;20139;-84
2020/12/02 07:48:05;;;;;;;26.75;14.75;;;6.60;92.30;;;;;;3522039;40;20192;-82
2020/12/02 07:50:43;;;;;;;25.02;13.60;;;6.60;92.30;;;;;;3521128;40;20156;-84
2020/12/02 07:53:13;;;;;;;21.13;12.13;;;6.60;92.30;;;;;;3520241;40;20125;-84
2020/12/02 07:55:49;;;;;;;24.40;12.75;;;6.50;92.30;;;;;;3510895;40;20144;-84
2020/12/02 07:58:37;;;;;;;26.42;13.45;;;6.60;92.40;;;;;;3588923;33;20590;-83
2020/12/02 08:01:36;;;;;;;20.77;12.13;;;6.60;92.40;;;;;;3505411;41;20410;-87
2020/12/02 08:04:22;;;;;;;25.52;12.95;;;6.60;92.30;;;;;;3502702;40;20137;-85
2020/12/02 08:07:15;;;;;;;27.95;14.60;;;6.60;92.30;;;;;;3520109;40;20651;-84
2020/12/02 08:09:59;;;;;;;;;;;;;;;;;;;;;
2020/12/02 08:12:56;;;;;;;;;;;;;;;;;;;;;
2020/12/02 08:15:38;;;;;;;24.08;12.52;;;6.60;92.20;;;;;;3502225;41;20145;-85
2020/12/02 08:18:18;;;;;;;;;;;6.60;92.20;;;;;;3503297;41;20218;-86
2020/12/02 08:21:22;;;;;;;22.60;11.38;;;6.60;92.20;;;;;;3512482;33;20033;-88
2020/12/02 08:24:16;;;;;;;22.40;12.52;;;6.50;92.20;;;;;;3494103;33;20125;-85
2020/12/02 08:26:54;;;;;;;;;;;;;;;;;;;;;
2020/12/02 08:29:27;;;;;;;18.05;11.23;;;6.60;92.20;;;;;;3486553;41;20114;-87
2020/12/02 08:33:09;;;;;;;19.88;11.02;;;6.50;92.10;;;;;;3486051;41;20484;-85
2020/12/02 08:35:46;;;;;;;22.52;11.30;;;6.60;92.10;;;;;;3469257;41;20127;-87
2020/12/02 08:38:40;;;;;;;21.92;11.40;;;6.60;92.00;;;;;;3461680;41;20135;-84
2020/12/02 08:41:21;;;;;;;20.98;11.68;;;6.50;92.00;;;;;;3437923;41;20589;-86
2020/12/02 08:44:14;;;;;;;26.43;13.13;;;6.50;92.00;;;;;;3447061;41;20144;-85
2020/12/02 08:46:59;;;;;;;17.58;10.82;;;6.50;92.00;;;;;;3448064;33;20239;-85
2020/12/02 08:49:30;;;;;;;18.17;10.65;;;6.50;92.00;;;;;;3447050;33;20156;-86
2020/12/02 08:52:01;;;;;;;18.92;11.02;;;6.50;92.10;;;;;;3454088;33;20682;-84
2020/12/02 08:54:38;;;;;;;18.20;10.15;;;6.50;92.00;;;;;;3456285;33;20123;-86
2020/12/02 08:57:12;;;;;;;21.83;12.20;;;6.50;92.00;;;;;;3458960;33;20139;-87
2020/12/02 08:59:51;;;;;;;18.90;10.95;;;6.50;92.00;;;;;;3428497;34;20124;-86
2020/12/02 09:02:19;;;;;;;17.42;10.85;;;6.50;92.00;;;;;;3434774;34;20120;-85
2020/12/02 09:04:46;;;;;;;21.92;11.30;;;6.60;92.00;;;;;;3423802;41;20743;-86
2020/12/02 09:07:24;;;;;;;18.23;10.93;;;6.50;92.00;;;;;;3415325;42;20596;-84
2020/12/02 09:10:01;;;;;;;20.65;11.85;;;6.60;92.00;;;;;;3427015;34;20104;-85
2020/12/02 09:12:56;;;;;;;18.83;11.50;;;6.60;92.00;;;;;;3426495;41;20118;-85
2020/12/02 09:15:31;;;;;;;16.48;10.65;;;6.60;92.00;;;;;;3428322;34;20144;-84
2020/12/02 09:18:27;;;;;;;21.60;12.65;;;6.60;92.00;;;;;;3395632;42;20114;-85
2020/12/02 09:21:15;;;;;;;;;;;;;;;;;;;;;
2020/12/02 09:24:23;;;;;;;19.85;11.90;;;6.60;92.00;;;;;;3407611;34;20634;-86
2020/12/02 09:26:58;;;;;;;;;;;;;;;;;;;;;
2020/12/02 09:29:39;;;;;;;19.27;11.75;;;6.70;92.00;;;;;;3414429;42;20125;-86
2020/12/02 09:32:10;;;;;;;18.52;11.52;;;6.70;92.00;;;;;;3427751;34;20603;-85
2020/12/02 09:34:38;;;;;;;21.23;13.20;;;6.70;92.00;;;;;;3438057;34;20112;-84
2020/12/02 09:37:13;;;;;;;20.05;12.55;;;6.60;91.90;;;;;;3433432;41;20108;-85
2020/12/02 09:39:46;;;;;;;19.15;12.05;;;6.60;91.90;;;;;;3437505;34;20128;-85
2020/12/02 09:42:55;;;;;;;22.70;13.50;;;6.60;91.90;;;;;;3443663;41;20214;-87
2020/12/02 09:45:46;;;;;;;21.58;12.65;;;6.60;91.90;;;;;;3438964;41;20219;-86
2020/12/02 09:48:27;;;;;;;21.75;13.00;;;6.60;91.90;;;;;;3446727;33;20152;-84
2020/12/02 09:50:56;;;;;;;22.80;12.98;;;6.60;91.90;;;;;;3427656;41;20116;-84
2020/12/02 09:53:39;;;;;;;18.63;12.20;;;6.60;92.00;;;;;;3410709;42;20152;-85
2020/12/02 09:56:14;;;;;;;24.67;11.85;;;6.70;92.00;;;;;;3418623;34;20128;-86
2020/12/02 09:58:46;;;;;;;18.33;11.63;;;6.70;92.00;;;;;;3410717;42;21132;-85
2020/12/02 10:01:33;;;;;;;23.05;12.88;;;6.70;92.00;;;;;;3406802;34;20137;-85
2020/12/02 10:04:51;;;;;;;20.05;11.10;;;6.80;92.00;;;;;;3425687;34;20131;-84
2020/12/02 10:07:43;;;;;;;21.73;11.93;;;6.80;92.00;;;;;;3436467;34;20120;-85
2020/12/02 10:10:32;;;;;;;23.42;12.98;;;6.80;92.00;;;;;;3427513;34;20545;-85
2020/12/02 10:13:28;;;;;;;19.30;12.80;;;6.80;91.90;;;;;;3400098;42;20534;-85
2020/12/02 10:16:35;;;;;;;19.27;12.38;;;6.80;91.90;;;;;;3433772;41;20116;-86
2020/12/02 10:19:36;;;;;;;22.70;14.27;;;6.80;91.90;;;;;;3436440;34;20127;-86
2020/12/02 10:22:43;;;;;;;;;;;;;;;;;;;;;
2020/12/02 10:32:00;;;;;;;20.70;12.05;;;6.80;91.80;;;;;;3455045;33;20433;-86
2020/12/02 10:35:01;;;;;;;19.23;11.95;;;6.90;91.90;;;;;;3452924;33;20562;-85
2020/12/02 10:41:12;;;;;;;;;;;;;;;;;;;;;
2020/12/02 10:44:26;;;;;;;;;;;;;;;;;;;;;
2020/12/02 10:47:43;;;;;;;22.63;12.85;;;6.90;91.90;;;;;;3466505;34;20573;-85
2020/12/02 10:50:30;;;;;;;;;;;;;;;;;;;;;
2020/12/02 10:53:24;;;;;;;20.75;13.02;;;6.90;91.90;;;;;;3464017;33;20367;-86
2020/12/02 10:55:55;;;;;;;22.85;14.02;;;6.90;91.90;;;;;;3464080;41;20647;-85
2020/12/02 11:04:44;;;;;;;;;;;;;;;;;;;;;
2020/12/02 11:08:10;;;;;;;32.28;15.35;;;6.90;91.90;;;;;;3443092;34;20486;-87
2020/12/02 11:10:56;;;;;;;;;;;;;;;;;;;;;
2020/12/02 11:14:07;;;;;;;28.77;16.38;;;7.00;92.20;;;;;;3437961;41;20128;-85
2020/12/02 11:17:22;;;;;;;29.88;15.52;;;7.00;91.90;;;;;;3417914;42;20541;-86
2020/12/02 11:20:09;;;;;;;;;;;;;;;;;;;;;
2020/12/02 11:23:38;;;;;;;;;;;;;;;;;;;;;
2020/12/02 11:26:17;;;;;;;;;;;;;;;;;;;;;
2020/12/02 11:28:57;;;;;;;;;;;;;;;;;;;;;
2020/12/02 11:32:31;;;;;;;31.77;16.27;;;7.00;91.90;;;;;;3454805;33;20429;-85
2020/12/02 11:35:44;;;;;;;29.58;15.40;;;7.00;91.90;;;;;;3463242;41;20207;-86
2020/12/02 11:39:07;;;;;;;;;;;;;;;;;;;;;
2020/12/02 11:42:28;;;;;;;34.30;18.52;;;7.00;91.90;;;;;;3422390;41;20105;-84
2020/12/02 11:45:38;;;;;;;;;;;;;;;;;;;;;
2020/12/02 11:48:25;;;;;;;37.42;17.58;;;7.10;91.90;;;;;;3417208;42;20128;-87
2020/12/02 11:51:14;;;;;;;32.90;17.70;;;7.10;91.90;;;;;;3433598;34;20600;-84
2020/12/02 11:54:22;;;;;;;;;;;;;;;;;;;;;
2020/12/02 11:56:57;;;;;;;35.42;18.40;;;7.10;91.90;;;;;;3435508;41;20493;-85
2020/12/02 11:59:54;;;;;;;37.63;19.48;;;7.10;91.90;;;;;;3449073;33;20107;-86
2020/12/02 12:03:19;;;;;;;35.83;19.05;;;7.10;91.90;;;;;;3456767;41;20122;-85
2020/12/02 12:05:58;;;;;;;32.97;18.55;;;7.10;91.90;;;;;;3446915;33;20615;-83
2020/12/02 12:09:09;;;;;;;;;;;;;;;;;;;;;
2020/12/02 12:11:56;;;;;;;38.95;19.80;;;7.10;91.90;;;;;;3450199;41;20134;-85
2020/12/02 12:14:47;;;;;;;34.22;18.77;;;7.10;91.90;;;;;;3446806;41;20198;-85
2020/12/02 12:17:43;;;;;;;37.15;19.73;;;7.10;91.90;;;;;;3437034;41;20127;-84
2020/12/02 12:20:22;;;;;;;35.78;18.75;;;7.10;91.90;;;;;;3446709;33;20123;-84
2020/12/02 12:23:38;;;;;;;36.95;19.23;;;7.10;91.90;;;;;;3407049;42;20155;-86
2020/12/02 12:26:09;;;;;;;32.15;18.58;;;7.10;91.90;;;;;;3400225;42;20130;-85
2020/12/02 12:28:46;;;;;;;33.03;17.83;;;7.10;91.90;;;;;;3393301;34;20194;-84
2020/12/02 12:31:40;;;;;;;40.58;20.48;;;7.10;91.90;;;;;;3384628;34;20219;-84
2020/12/02 12:34:21;;;;;;;42.17;22.25;;;7.10;91.90;;;;;;3411536;42;20626;-84
2020/12/02 12:37:03;;;;;;;38.25;20.40;;;7.10;91.90;;;;;;3419552;42;20946;-85
2020/12/02 12:39:40;;;;;;;40.45;20.40;;;7.10;91.90;;;;;;3428857;34;20575;-86
2020/12/02 12:42:21;;;;;;;37.05;19.02;;;7.10;91.90;;;;;;3437675;41;20119;-84
2020/12/02 12:44:53;;;;;;;36.55;19.23;;;7.10;91.90;;;;;;3429530;41;20926;-86
2020/12/02 12:47:33;;;;;;;41.33;19.88;;;7.10;91.90;;;;;;3419241;41;20113;-84
2020/12/02 12:50:06;;;;;;;39.05;20.70;;;7.10;91.90;;;;;;3400690;42;20133;-85
2020/12/02 12:52:37;;;;;;;36.15;19.98;;;7.10;91.90;;;;;;3454007;34;20137;-85
2020/12/02 12:55:14;;;;;;;35.20;18.75;;;7.20;91.90;;;;;;3417372;42;20158;-84
2020/12/02 12:57:58;;;;;;;32.53;18.05;;;7.10;91.90;;;;;;3387014;42;20561;-85
2020/12/02 13:00:33;;;;;;;36.35;17.52;;;7.10;91.90;;;;;;3403455;34;20140;-85
2020/12/02 13:03:06;;;;;;;38.22;19.05;;;7.10;91.90;;;;;;3427809;41;20288;-85
2020/12/02 13:05:39;;;;;;;119.43;62.03;;;7.10;91.90;;;;;;3436880;34;20143;-85
2020/12/02 13:08:20;;;;;;;73.78;38.65;;;7.10;91.90;;;;;;3422379;34;20259;-85
2020/12/02 13:10:55;;;;;;;50.38;27.17;;;7.10;91.90;;;;;;3428348;41;20589;-86
2020/12/02 13:13:44;;;;;;;44.30;22.92;;;7.20;91.90;;;;;;3451357;33;20187;-84
2020/12/02 13:16:26;;;;;;;41.00;21.77;;;7.20;91.90;;;;;;3454961;41;20615;-85
2020/12/02 13:19:15;;;;;;;43.30;20.67;;;7.20;91.90;;;;;;3454182;33;20160;-85
2020/12/02 13:21:58;;;;;;;34.92;18.75;;;7.10;91.80;;;;;;3445622;41;20265;-85
2020/12/02 13:24:46;;;;;;;37.95;19.38;;;7.10;91.80;;;;;;3445592;41;20181;-85
2020/12/02 13:27:44;;;;;;;37.33;19.35;;;7.10;91.80;;;;;;3451083;33;20152;-86
2020/12/02 13:30:44;;;;;;;38.53;19.48;;;7.20;91.90;;;;;;3436907;41;20127;-85
2020/12/02 13:33:37;;;;;;;37.33;19.45;;;7.10;91.90;;;;;;3418624;34;20125;-86
2020/12/02 13:36:39;;;;;;;;;;;;;;;;;;;;;
2020/12/02 13:39:12;;;;;;;38.33;19.65;;;7.20;91.90;;;;;;3415747;34;20517;-84
2020/12/02 13:41:58;;;;;;;36.33;19.05;;;7.10;91.80;;;;;;3399703;42;20113;-86
2020/12/02 13:44:51;;;;;;;38.08;18.60;;;7.10;91.90;;;;;;3382127;42;20107;-86
2020/12/02 13:47:46;;;;;;;39.22;19.65;;;7.10;91.90;;;;;;3386455;34;20503;-85
2020/12/02 13:50:25;;;;;;;41.67;20.48;;;7.10;91.90;;;;;;3397548;42;20639;-85
2020/12/02 13:53:15;;;;;;;41.30;19.90;;;7.10;91.90;;;;;;3397208;34;20114;-84
2020/12/02 13:56:23;;;;;;;40.72;20.83;;;7.10;91.90;;;;;;3390838;34;20146;-84
2020/12/02 13:59:20;;;;;;;39.55;20.08;;;7.10;91.90;;;;;;3408992;42;20121;-85
2020/12/02 14:02:04;;;;;;;40.25;20.05;;;7.10;91.90;;;;;;3416614;41;20128;-83
2020/12/02 14:05:09;;;;;;;41.83;18.67;;;7.10;91.90;;;;;;3410443;42;20124;-83
2020/12/02 14:07:43;;;;;;;34.35;18.42;;;7.10;91.90;;;;;;3446013;33;20173;-85
2020/12/02 14:10:14;;;;;;;38.38;19.15;;;7.10;91.90;;;;;;3427337;41;20139;-82
2020/12/02 14:12:46;;;;;;;39.30;18.85;;;7.10;91.90;;;;;;3425933;34;20133;-85
2020/12/02 14:15:36;;;;;;;38.88;17.95;;;7.10;91.90;;;;;;3415084;42;20128;-85
2020/12/02 14:18:10;;;;;;;36.17;18.83;;;7.10;91.90;;;;;;3418130;42;20144;-85
2020/12/02 14:21:22;;;;;;;43.25;19.45;;;7.10;91.90;;;;;;3404992;42;20199;-85
2020/12/02 14:23:57;;;;;;;;;;;7.10;91.90;;;;;;3400167;42;20129;-87
2020/12/02 14:26:27;;;;;;;38.78;18.60;;;7.10;91.90;;;;;;3397544;42;20428;-85